Time;durP1;ratioP1;P1;durP2;ratioP2;P2;SDS_P1;SDS_P2;PMS_P1;PMS_P2;Temp;Humidity;BMP_temperature;BMP_pressure;BME280_temperature;BME280_humidity;BME280_pressure;Samples;Min_cycle;Max_cycle;Signal;HPM_P1;HPM_P2
2022/06/16 00:01:27;;;;;;;;;;;;;;;;;;5011776;28;20436;-77
2022/06/16 00:03:53;;;;;;;;;;;;;;;;;;5013760;28;20004;-76
2022/06/16 00:06:20;;;;;;;;;;;;;;;;;;5015994;28;19971;-76
2022/06/16 00:08:46;;;;;;;;;;;;;;;;;;5015874;28;20410;-76
2022/06/16 00:11:19;;;;;;;;;;;;;;;;;;5015681;28;20020;-77
2022/06/16 00:13:48;;;;;;;;;;;;;;;;;;5016114;28;19933;-77
2022/06/16 00:16:14;;;;;;;;;;;;;;;;;;5015449;28;19932;-77
2022/06/16 00:18:41;;;;;;;;;;;;;;;;;;5015988;28;19926;-76
2022/06/16 00:21:08;;;;;;;;;;;;;;;;;;5015753;28;19926;-76
2022/06/16 00:23:35;;;;;;;;;;;;;;;;;;5015915;28;19961;-77
2022/06/16 00:26:01;;;;;;;;;;;;;;;;;;5015994;28;20024;-77
2022/06/16 00:28:28;;;;;;;;;;;;;;;;;;5015835;28;20008;-76
2022/06/16 00:31:02;;;;;;;;;;;;;;;;;;5015314;28;19936;-77
2022/06/16 00:33:28;;;;;;;;;;;;;;;;;;5015949;28;19983;-78
2022/06/16 00:35:55;;;;;;;;;;;;;;;;;;5015616;28;19926;-77
2022/06/16 00:38:23;;;;;;;;;;;;;;;;;;5016389;28;19957;-76
2022/06/16 00:40:49;;;;;;;;;;;;;;;;;;5016856;28;20450;-75
2022/06/16 00:43:16;;;;;;;;;;;;;;;;;;5015866;28;19969;-76
2022/06/16 00:45:47;;;;;;;;;;;;;;;;;;5015642;28;19979;-76
2022/06/16 00:48:17;;;;;;;;;;;;;;;;;;5015566;28;19925;-77
2022/06/16 00:50:45;;;;;;;;;;;;;;;;;;5014607;28;20299;-77
2022/06/16 00:53:11;;;;;;;;;;;;;;;;;;5015221;28;20622;-77
2022/06/16 00:55:38;;;;;;;;;;;;;;;;;;5015034;28;20366;-77
2022/06/16 00:58:05;;;;;;;;;;;;;;;;;;5015322;28;19925;-76
2022/06/16 01:00:32;;;;;;;;;;;;;;;;;;5014607;28;19984;-76
2022/06/16 01:02:58;;;;;;;;;;;;;;;;;;5015224;28;19932;-77
2022/06/16 01:05:25;;;;;;;;;;;;;;;;;;5015109;28;20012;-76
2022/06/16 01:07:53;;;;;;;;;;;;;;;;;;5015219;28;19948;-76
2022/06/16 01:10:19;;;;;;;;;;;;;;;;;;5014549;28;20025;-77
2022/06/16 01:15:51;;;;;;;;;;;;;;;;;;5014375;28;20296;-76
2022/06/16 01:18:21;;;;;;;;;;;;;;;;;;5014538;28;19926;-76
2022/06/16 01:20:53;;;;;;;;;;;;;;;;;;5014203;28;19925;-77
2022/06/16 01:23:32;;;;;;;;;;;;;;;;;;5014422;28;19932;-76
2022/06/16 01:26:04;;;;;;;;;;;;;;;;;;5014649;28;19967;-76
2022/06/16 01:28:31;;;;;;;;;;;;;;;;;;5014503;28;19925;-77
2022/06/16 01:31:02;;;;;;;;;;;;;;;;;;5014094;28;20033;-76
2022/06/16 01:33:34;;;;;;;;;;;;;;;;;;5014499;28;20004;-76
2022/06/16 01:36:03;;;;;;;;;;;;;;;;;;5014927;28;20016;-76
2022/06/16 01:38:33;;;;;;;;;;;;;;;;;;5017840;28;19925;-76
2022/06/16 01:41:05;;;;;;;;;;;;;;;;;;5017202;28;19925;-76
2022/06/16 01:43:33;;;;;;;;;;;;;;;;;;5016743;28;19979;-77
2022/06/16 01:46:05;;;;;;;;;;;;;;;;;;5015491;28;19932;-77
2022/06/16 01:48:33;;;;;;;;;;;;;;;;;;5014132;28;19926;-77
2022/06/16 01:51:01;;;;;;;;;;;;;;;;;;5013876;28;19932;-77
2022/06/16 01:53:31;;;;;;;;;;;;;;;;;;5014162;28;19925;-76
2022/06/16 01:56:01;;;;;;;;;;;;;;;;;;5014019;28;20304;-76
2022/06/16 01:58:29;;;;;;;;;;;;;;;;;;5014853;28;20020;-77
2022/06/16 02:00:56;;;;;;;;;;;;;;;;;;5014042;28;20028;-77
2022/06/16 02:03:27;;;;;;;;;;;;;;;;;;5014146;28;19925;-77
2022/06/16 02:05:55;;;;;;;;;;;;;;;;;;5013765;28;19925;-77
2022/06/16 02:08:23;;;;;;;;;;;;;;;;;;5013935;28;20017;-77
2022/06/16 02:10:52;;;;;;;;;;;;;;;;;;5013324;28;20424;-77
2022/06/16 02:13:20;;;;;;;;;;;;;;;;;;5013513;28;19925;-77
2022/06/16 02:15:49;;;;;;;;;;;;;;;;;;5019494;28;20019;-77
2022/06/16 02:18:17;;;;;;;;;;;;;;;;;;5013460;28;20266;-77
2022/06/16 02:20:51;;;;;;;;;;;;;;;;;;5013016;28;19977;-77
2022/06/16 02:23:18;;;;;;;;;;;;;;;;;;5013959;28;19925;-77
2022/06/16 02:25:45;;;;;;;;;;;;;;;;;;5017502;28;19929;-78
2022/06/16 02:28:12;;;;;;;;;;;;;;;;;;5018165;28;20009;-78
2022/06/16 02:30:41;;;;;;;;;;;;;;;;;;5016854;28;19925;-76
2022/06/16 02:33:12;;;;;;;;;;;;;;;;;;5018928;28;19929;-77
2022/06/16 02:35:42;;;;;;;;;;;;;;;;;;5018197;28;19932;-78
2022/06/16 02:38:15;;;;;;;;;;;;;;;;;;5019551;28;19932;-77
2022/06/16 02:40:55;;;;;;;;;;;;;;;;;;5019983;28;20265;-77
2022/06/16 02:43:29;;;;;;;;;;;;;;;;;;5019816;28;19931;-78
2022/06/16 02:46:02;;;;;;;;;;;;;;;;;;5019348;28;19925;-78
2022/06/16 02:48:32;;;;;;;;;;;;;;;;;;5021787;28;19925;-77
2022/06/16 02:51:00;;;;;;;;;;;;;;;;;;5020708;28;19932;-78
2022/06/16 02:53:34;;;;;;;;;;;;;;;;;;5018992;28;20008;-77
2022/06/16 02:56:04;;;;;;;;;;;;;;;;;;5015145;28;19925;-76
2022/06/16 02:58:31;;;;;;;;;;;;;;;;;;5017069;28;19948;-77
2022/06/16 03:00:59;;;;;;;;;;;;;;;;;;5017221;28;19929;-78
2022/06/16 03:03:26;;;;;;;;;;;;;;;;;;5016805;28;20017;-78
2022/06/16 03:05:53;;;;;;;;;;;;;;;;;;5016400;28;19980;-77
2022/06/16 03:08:20;;;;;;;;;;;;;;;;;;5014889;28;19925;-77
2022/06/16 03:10:54;;;;;;;;;;;;;;;;;;5012706;28;20414;-77
2022/06/16 03:13:22;;;;;;;;;;;;;;;;;;5016891;28;19957;-78
2022/06/16 03:15:48;;;;;;;;;;;;;;;;;;5017065;28;20000;-78
2022/06/16 03:18:15;;;;;;;;;;;;;;;;;;5017337;28;19988;-76
2022/06/16 03:20:41;;;;;;;;;;;;;;;;;;5015907;28;20012;-78
2022/06/16 03:23:08;;;;;;;;;;;;;;;;;;5016562;28;20021;-78
2022/06/16 03:25:34;;;;;;;;;;;;;;;;;;5016692;28;19969;-77
2022/06/16 03:28:02;;;;;;;;;;;;;;;;;;5016036;28;20016;-76
2022/06/16 03:30:29;;;;;;;;;;;;;;;;;;5016265;28;19927;-77
2022/06/16 03:32:55;;;;;;;;;;;;;;;;;;5017075;28;19926;-77
2022/06/16 03:35:22;;;;;;;;;;;;;;;;;;5018000;28;19932;-77
2022/06/16 03:37:48;;;;;;;;;;;;;;;;;;5019761;28;20006;-77
2022/06/16 03:40:15;;;;;;;;;;;;;;;;;;5020498;28;19932;-76
2022/06/16 03:42:41;;;;;;;;;;;;;;;;;;5021295;28;19973;-75
2022/06/16 03:45:10;;;;;;;;;;;;;;;;;;5019928;28;19981;-76
2022/06/16 03:47:36;;;;;;;;;;;;;;;;;;5019171;28;19972;-77
2022/06/16 03:50:03;;;;;;;;;;;;;;;;;;5018175;28;19926;-77
2022/06/16 03:52:29;;;;;;;;;;;;;;;;;;5019508;28;19932;-77
2022/06/16 03:54:56;;;;;;;;;;;;;;;;;;5018453;28;19925;-77
2022/06/16 03:57:22;;;;;;;;;;;;;;;;;;5018615;28;19925;-78
2022/06/16 03:59:49;;;;;;;;;;;;;;;;;;5017998;28;19964;-78
2022/06/16 04:02:17;;;;;;;;;;;;;;;;;;5018149;28;19930;-78
2022/06/16 04:04:45;;;;;;;;;;;;;;;;;;5018126;28;19926;-77
2022/06/16 04:07:11;;;;;;;;;;;;;;;;;;5018931;28;19925;-77
2022/06/16 04:09:38;;;;;;;;;;;;;;;;;;5019626;28;19993;-78
2022/06/16 04:12:06;;;;;;;;;;;;;;;;;;5019944;28;20296;-78
2022/06/16 04:14:33;;;;;;;;;;;;;;;;;;5019667;28;19985;-77
2022/06/16 04:16:59;;;;;;;;;;;;;;;;;;5018051;28;19969;-77
2022/06/16 04:19:27;;;;;;;;;;;;;;;;;;5018436;28;19967;-78
2022/06/16 04:21:53;;;;;;;;;;;;;;;;;;5028701;23;20143;-79
2022/06/16 04:24:21;;;;;;;;;;;;;;;;;;5019895;28;19932;-79
2022/06/16 04:26:51;;;;;;;;;;;;;;;;;;5019872;28;20013;-79
2022/06/16 04:29:19;;;;;;;;;;;;;;;;;;5019600;28;19969;-78
2022/06/16 04:31:46;;;;;;;;;;;;;;;;;;5019345;28;19933;-79
2022/06/16 04:34:14;;;;;;;;;;;;;;;;;;5020737;28;20418;-79
2022/06/16 04:36:42;;;;;;;;;;;;;;;;;;5019657;28;20388;-79
2022/06/16 04:39:08;;;;;;;;;;;;;;;;;;5019563;28;20016;-78
2022/06/16 04:41:35;;;;;;;;;;;;;;;;;;5018586;28;19925;-78
2022/06/16 04:44:02;;;;;;;;;;;;;;;;;;5019683;28;19925;-77
2022/06/16 04:46:30;;;;;;;;;;;;;;;;;;5019019;28;19926;-77
2022/06/16 04:48:57;;;;;;;;;;;;;;;;;;5018684;28;19986;-78
2022/06/16 04:51:23;;;;;;;;;;;;;;;;;;5018765;28;19972;-78
2022/06/16 04:53:51;;;;;;;;;;;;;;;;;;5021034;28;19996;-79
2022/06/16 04:56:18;;;;;;;;;;;;;;;;;;5020805;28;20288;-80
2022/06/16 04:58:46;;;;;;;;;;;;;;;;;;5028864;28;20437;-78
2022/06/16 05:01:13;;;;;;;;;;;;;;;;;;5057807;28;19925;-79
2022/06/16 05:03:39;;;;;;;;;;;;;;;;;;5058326;28;19924;-79
2022/06/16 05:06:08;;;;;;;;;;;;;;;;;;5057946;28;19980;-79
2022/06/16 05:08:34;;;;;;;;;;;;;;;;;;5057712;28;20007;-78
2022/06/16 05:11:05;;;;;;;;;;;;;;;;;;5057478;28;19990;-78
2022/06/16 05:13:32;;;;;;;;;;;;;;;;;;5056154;28;20394;-77
2022/06/16 05:16:01;;;;;;;;;;;;;;;;;;5054752;28;20020;-77
2022/06/16 05:18:28;;;;;;;;;;;;;;;;;;5055137;28;20003;-78
2022/06/16 05:21:06;;;;;;;;;;;;;;;;;;5054119;28;19952;-78
2022/06/16 05:23:32;;;;;;;;;;;;;;;;;;5054636;28;20023;-78
2022/06/16 05:25:58;;;;;;;;;;;;;;;;;;5054904;28;20367;-77
2022/06/16 05:28:26;;;;;;;;;;;;;;;;;;5054394;28;20434;-77
2022/06/16 05:30:53;;;;;;;;;;;;;;;;;;5054821;28;20015;-77
2022/06/16 05:33:19;;;;;;;;;;;;;;;;;;5057346;28;20487;-77
2022/06/16 05:35:55;;;;;;;;;;;;;;;;;;5075855;28;19912;-77
2022/06/16 05:38:21;;;;;;;;;;;;;;;;;;5059842;28;19925;-79
2022/06/16 05:40:47;;;;;;;;;;;;;;;;;;5061027;28;19987;-78
2022/06/16 05:43:14;;;;;;;;;;;;;;;;;;5062124;28;20299;-79
2022/06/16 05:45:42;;;;;;;;;;;;;;;;;;5054368;28;19976;-77
2022/06/16 05:48:08;;;;;;;;;;;;;;;;;;5053937;28;20019;-76
2022/06/16 05:50:35;;;;;;;;;;;;;;;;;;5053604;28;20364;-78
2022/06/16 05:53:02;;;;;;;;;;;;;;;;;;5054674;28;19924;-79
2022/06/16 05:55:30;;;;;;;;;;;;;;;;;;5055700;28;19932;-77
2022/06/16 05:57:57;;;;;;;;;;;;;;;;;;5054344;28;20024;-77
2022/06/16 06:00:23;;;;;;;;;;;;;;;;;;5037249;28;19955;-77
2022/06/16 06:02:54;;;;;;;;;;;;;;;;;;5036748;28;19925;-76
2022/06/16 06:05:21;;;;;;;;;;;;;;;;;;5035131;28;20020;-78
2022/06/16 06:18:45;;;;;;;;;;;;;;;;;;5040129;28;19932;-78
2022/06/16 06:21:11;;;;;;;;;;;;;;;;;;5039363;28;19925;-77
2022/06/16 06:23:38;;;;;;;;;;;;;;;;;;5040365;28;19925;-77
2022/06/16 06:26:04;;;;;;;;;;;;;;;;;;5057296;28;19958;-78
2022/06/16 06:28:31;;;;;;;;;;;;;;;;;;5053911;28;19986;-77
2022/06/16 06:30:57;;;;;;;;;;;;;;;;;;5056045;28;19925;-79
2022/06/16 06:33:24;;;;;;;;;;;;;;;;;;5054234;28;19964;-77
2022/06/16 06:35:52;;;;;;;;;;;;;;;;;;5053077;28;19999;-78
2022/06/16 06:38:18;;;;;;;;;;;;;;;;;;5052722;28;19924;-78
2022/06/16 06:40:45;;;;;;;;;;;;;;;;;;5053256;28;19932;-77
2022/06/16 06:43:11;;;;;;;;;;;;;;;;;;5052783;28;19967;-77
2022/06/16 06:45:37;;;;;;;;;;;;;;;;;;5053355;28;19924;-77
2022/06/16 06:48:05;;;;;;;;;;;;;;;;;;5053261;28;20031;-77
2022/06/16 06:50:33;;;;;;;;;;;;;;;;;;5053221;28;19925;-77
2022/06/16 06:53:01;;;;;;;;;;;;;;;;;;5053368;28;19956;-77
2022/06/16 06:55:28;;;;;;;;;;;;;;;;;;5053863;28;20019;-76
2022/06/16 06:57:55;;;;;;;;;;;;;;;;;;5054238;28;19932;-77
2022/06/16 07:00:23;;;;;;;;;;;;;;;;;;5036783;28;19960;-78
2022/06/16 07:02:50;;;;;;;;;;;;;;;;;;5033625;28;19925;-76
2022/06/16 07:05:16;;;;;;;;;;;;;;;;;;5033284;28;20446;-76
2022/06/16 07:07:43;;;;;;;;;;;;;;;;;;5032660;28;19969;-76
2022/06/16 07:10:11;;;;;;;;;;;;;;;;;;5032625;28;19947;-77
2022/06/16 07:12:38;;;;;;;;;;;;;;;;;;5032855;28;19932;-76
2022/06/16 07:15:05;;;;;;;;;;;;;;;;;;5033515;28;20024;-77
2022/06/16 07:17:32;;;;;;;;;;;;;;;;;;5033103;28;19932;-78
2022/06/16 07:19:58;;;;;;;;;;;;;;;;;;5034044;28;20047;-77
2022/06/16 07:22:25;;;;;;;;;;;;;;;;;;5038493;28;19968;-77
2022/06/16 07:24:52;;;;;;;;;;;;;;;;;;5036559;28;19956;-77
2022/06/16 07:27:20;;;;;;;;;;;;;;;;;;5036175;28;19971;-77
2022/06/16 07:29:49;;;;;;;;;;;;;;;;;;5033243;28;20049;-77
2022/06/16 07:32:17;;;;;;;;;;;;;;;;;;5034489;28;19925;-77
2022/06/16 07:34:44;;;;;;;;;;;;;;;;;;5044432;28;19931;-77
2022/06/16 07:37:10;;;;;;;;;;;;;;;;;;5039524;28;19932;-77
2022/06/16 07:39:37;;;;;;;;;;;;;;;;;;5035395;28;19975;-78
2022/06/16 07:42:04;;;;;;;;;;;;;;;;;;5035537;28;20414;-78
2022/06/16 07:44:31;;;;;;;;;;;;;;;;;;5035556;28;20535;-78
2022/06/16 07:46:58;;;;;;;;;;;;;;;;;;5034130;28;20025;-78
2022/06/16 07:49:27;;;;;;;;;;;;;;;;;;5035567;28;20416;-78
2022/06/16 07:51:54;;;;;;;;;;;;;;;;;;5037427;28;19932;-78
2022/06/16 07:54:20;;;;;;;;;;;;;;;;;;5037545;28;19931;-79
2022/06/16 07:56:47;;;;;;;;;;;;;;;;;;5035900;28;19993;-78
2022/06/16 07:59:14;;;;;;;;;;;;;;;;;;5044431;28;20012;-79
2022/06/16 08:01:41;;;;;;;;;;;;;;;;;;5054488;28;19925;-78
2022/06/16 08:04:08;;;;;;;;;;;;;;;;;;5055497;28;19929;-78
2022/06/16 08:06:35;;;;;;;;;;;;;;;;;;5056372;28;20012;-77
2022/06/16 08:09:02;;;;;;;;;;;;;;;;;;5052685;28;19964;-77
2022/06/16 08:14:12;;;;;;;;;;;;;;;;;;5054468;28;20397;-78
2022/06/16 08:16:39;;;;;;;;;;;;;;;;;;5053236;28;20409;-76
2022/06/16 08:19:07;;;;;;;;;;;;;;;;;;5054458;28;19925;-77
2022/06/16 08:21:33;;;;;;;;;;;;;;;;;;5054331;28;19955;-77
2022/06/16 08:24:00;;;;;;;;;;;;;;;;;;5055130;28;20003;-78
2022/06/16 08:26:27;;;;;;;;;;;;;;;;;;5057622;28;20434;-78
2022/06/16 08:28:54;;;;;;;;;;;;;;;;;;5062756;28;20016;-78
2022/06/16 08:31:22;;;;;;;;;;;;;;;;;;5063081;28;20371;-77
2022/06/16 08:33:49;;;;;;;;;;;;;;;;;;5060500;28;19979;-78
2022/06/16 08:36:17;;;;;;;;;;;;;;;;;;5056359;28;19968;-78
2022/06/16 08:38:43;;;;;;;;;;;;;;;;;;5056409;28;19931;-77
2022/06/16 08:41:15;;;;;;;;;;;;;;;;;;5056618;28;20007;-78
2022/06/16 08:43:47;;;;;;;;;;;;;;;;;;5055924;28;19925;-77
2022/06/16 08:46:16;;;;;;;;;;;;;;;;;;5057046;28;19924;-78
2022/06/16 08:48:47;;;;;;;;;;;;;;;;;;5056954;28;19925;-78
2022/06/16 08:51:16;;;;;;;;;;;;;;;;;;5055001;28;19925;-78
2022/06/16 08:53:53;;;;;;;;;;;;;;;;;;5055695;28;19924;-78
2022/06/16 08:56:22;;;;;;;;;;;;;;;;;;5055587;28;19925;-79
2022/06/16 08:58:53;;;;;;;;;;;;;;;;;;5055573;28;19931;-79
2022/06/16 09:01:22;;;;;;;;;;;;;;;;;;5054995;28;20498;-79
2022/06/16 09:03:51;;;;;;;;;;;;;;;;;;5055818;28;19925;-78
2022/06/16 09:06:26;;;;;;;;;;;;;;;;;;5056013;28;20023;-78
2022/06/16 09:08:58;;;;;;;;;;;;;;;;;;5056250;28;19968;-78
2022/06/16 09:11:29;;;;;;;;;;;;;;;;;;5055692;28;20288;-78
2022/06/16 09:14:13;;;;;;;;;;;;;;;;;;5055822;28;19979;-77
2022/06/16 09:16:42;;;;;;;;;;;;;;;;;;5054829;28;19939;-78
2022/06/16 09:19:25;;;;;;;;;;;;;;;;;;5054409;28;19925;-77
2022/06/16 09:21:58;;;;;;;;;;;;;;;;;;5053511;28;20148;-77
2022/06/16 09:24:35;;;;;;;;;;;;;;;;;;5056367;28;20299;-78
2022/06/16 09:27:04;;;;;;;;;;;;;;;;;;5055241;28;19925;-79
2022/06/16 09:29:32;;;;;;;;;;;;;;;;;;5055080;28;19925;-78
2022/06/16 09:32:01;;;;;;;;;;;;;;;;;;5054721;28;19971;-79
2022/06/16 09:34:32;;;;;;;;;;;;;;;;;;5055167;28;19929;-78
2022/06/16 09:37:01;;;;;;;;;;;;;;;;;;5054204;28;19925;-79
2022/06/16 09:39:30;;;;;;;;;;;;;;;;;;5054541;28;19929;-78
2022/06/16 09:44:50;;;;;;;;;;;;;;;;;;5060346;28;19931;-77
2022/06/16 09:47:20;;;;;;;;;;;;;;;;;;5059144;28;19935;-79
2022/06/16 09:49:48;;;;;;;;;;;;;;;;;;5060169;28;19964;-77
2022/06/16 09:52:16;;;;;;;;;;;;;;;;;;5057970;28;20391;-80
2022/06/16 09:54:44;;;;;;;;;;;;;;;;;;5054902;28;19960;-76
2022/06/16 09:57:18;;;;;;;;;;;;;;;;;;5053814;28;19951;-76
2022/06/16 09:59:47;;;;;;;;;;;;;;;;;;5053978;28;19937;-77
2022/06/16 10:02:15;;;;;;;;;;;;;;;;;;5054756;28;20035;-76
2022/06/16 10:04:42;;;;;;;;;;;;;;;;;;5054758;28;19931;-78
2022/06/16 10:07:14;;;;;;;;;;;;;;;;;;5054395;28;20019;-77
2022/06/16 10:09:45;;;;;;;;;;;;;;;;;;5054175;28;19933;-77
2022/06/16 10:12:15;;;;;;;;;;;;;;;;;;5057298;28;19979;-76
2022/06/16 10:14:46;;;;;;;;;;;;;;;;;;5055574;28;19972;-76
2022/06/16 10:17:13;;;;;;;;;;;;;;;;;;5056013;28;19925;-78
2022/06/16 10:19:43;;;;;;;;;;;;;;;;;;5058179;28;20031;-78
2022/06/16 10:22:10;;;;;;;;;;;;;;;;;;5066586;28;19925;-77
2022/06/16 10:24:39;;;;;;;;;;;;;;;;;;5053327;23;20019;-78
2022/06/16 10:27:06;;;;;;;;;;;;;;;;;;5036048;28;20360;-78
2022/06/16 10:29:34;;;;;;;;;;;;;;;;;;5034936;28;19926;-78
2022/06/16 10:32:04;;;;;;;;;;;;;;;;;;5035925;28;19929;-77
2022/06/16 10:34:31;;;;;;;;;;;;;;;;;;5035746;28;19960;-78
2022/06/16 10:37:05;;;;;;;;;;;;;;;;;;5035740;28;19972;-78
2022/06/16 10:39:37;;;;;;;;;;;;;;;;;;5035495;28;19984;-78
2022/06/16 10:42:06;;;;;;;;;;;;;;;;;;5035234;28;19926;-79
2022/06/16 10:44:34;;;;;;;;;;;;;;;;;;5035399;28;20024;-78
2022/06/16 10:47:02;;;;;;;;;;;;;;;;;;5034476;28;19926;-77
2022/06/16 10:49:34;;;;;;;;;;;;;;;;;;5035010;28;19925;-78
2022/06/16 10:52:02;;;;;;;;;;;;;;;;;;5035198;28;20016;-79
2022/06/16 10:54:30;;;;;;;;;;;;;;;;;;5034858;28;19929;-78
2022/06/16 10:57:07;;;;;;;;;;;;;;;;;;5035659;28;19967;-78
2022/06/16 10:59:37;;;;;;;;;;;;;;;;;;5034976;28;20306;-78
2022/06/16 11:02:14;;;;;;;;;;;;;;;;;;5034967;28;19925;-78
2022/06/16 11:04:43;;;;;;;;;;;;;;;;;;5034923;28;19987;-78
2022/06/16 11:07:12;;;;;;;;;;;;;;;;;;5034671;28;20397;-78
2022/06/16 11:09:39;;;;;;;;;;;;;;;;;;5035025;28;20277;-78
2022/06/16 11:12:07;;;;;;;;;;;;;;;;;;5034928;28;20020;-78
2022/06/16 11:14:35;;;;;;;;;;;;;;;;;;5034916;28;20012;-78
2022/06/16 11:17:06;;;;;;;;;;;;;;;;;;5035138;28;20015;-78
2022/06/16 11:19:35;;;;;;;;;;;;;;;;;;5034779;28;20606;-78
2022/06/16 11:22:04;;;;;;;;;;;;;;;;;;5034929;28;19925;-77
2022/06/16 11:24:32;;;;;;;;;;;;;;;;;;5035011;28;20032;-78
2022/06/16 11:27:04;;;;;;;;;;;;;;;;;;5035665;28;20004;-78
2022/06/16 11:29:32;;;;;;;;;;;;;;;;;;5014713;28;20028;-78
2022/06/16 11:32:03;;;;;;;;;;;;;;;;;;5015685;28;19932;-78
2022/06/16 11:34:30;;;;;;;;;;;;;;;;;;5017002;28;19925;-78
2022/06/16 11:37:05;;;;;;;;;;;;;;;;;;5016372;28;20476;-78
2022/06/16 11:39:38;;;;;;;;;;;;;;;;;;5016746;28;19968;-79
2022/06/16 11:42:08;;;;;;;;;;;;;;;;;;5016125;28;20024;-78
2022/06/16 11:44:44;;;;;;;;;;;;;;;;;;5015567;28;19926;-78
2022/06/16 11:47:20;;;;;;;;;;;;;;;;;;5015837;28;19925;-78
2022/06/16 11:49:54;;;;;;;;;;;;;;;;;;5015609;28;20369;-78
2022/06/16 11:52:25;;;;;;;;;;;;;;;;;;5015897;28;20299;-79
2022/06/16 11:55:01;;;;;;;;;;;;;;;;;;5016345;28;19976;-78
2022/06/16 11:57:30;;;;;;;;;;;;;;;;;;5016345;28;20008;-78
2022/06/16 12:00:15;;;;;;;;;;;;;;;;;;5033716;28;19979;-79
2022/06/16 12:03:00;;;;;;;;;;;;;;;;;;5039909;28;19925;-78
2022/06/16 12:05:33;;;;;;;;;;;;;;;;;;5040619;28;19985;-78
2022/06/16 12:08:11;;;;;;;;;;;;;;;;;;5041143;28;19925;-78
2022/06/16 12:10:42;;;;;;;;;;;;;;;;;;5040181;28;20007;-78
2022/06/16 12:13:13;;;;;;;;;;;;;;;;;;5040835;28;19988;-78
2022/06/16 12:15:42;;;;;;;;;;;;;;;;;;5041509;28;20023;-78
2022/06/16 12:18:15;;;;;;;;;;;;;;;;;;5059999;28;19929;-77
2022/06/16 12:20:47;;;;;;;;;;;;;;;;;;5059813;28;19909;-79
2022/06/16 12:23:15;;;;;;;;;;;;;;;;;;5060287;28;19913;-77
2022/06/16 12:25:50;;;;;;;;;;;;;;;;;;5060229;28;19920;-76
2022/06/16 12:28:20;;;;;;;;;;;;;;;;;;5059492;28;19924;-76
2022/06/16 12:30:51;;;;;;;;;;;;;;;;;;5058595;28;19924;-76
2022/06/16 12:33:23;;;;;;;;;;;;;;;;;;5060028;28;19920;-78
2022/06/16 12:35:53;;;;;;;;;;;;;;;;;;5060687;28;19972;-78
2022/06/16 12:38:24;;;;;;;;;;;;;;;;;;5059913;28;19957;-78
2022/06/16 12:40:54;;;;;;;;;;;;;;;;;;5059588;28;19933;-78
2022/06/16 12:43:24;;;;;;;;;;;;;;;;;;5060143;28;19913;-78
2022/06/16 12:45:54;;;;;;;;;;;;;;;;;;5058583;28;19925;-79
2022/06/16 12:48:23;;;;;;;;;;;;;;;;;;5054307;28;20348;-78
2022/06/16 12:50:52;;;;;;;;;;;;;;;;;;5048998;28;19929;-78
2022/06/16 12:53:21;;;;;;;;;;;;;;;;;;5048296;28;19947;-78
2022/06/16 12:55:50;;;;;;;;;;;;;;;;;;5053743;28;19936;-78
2022/06/16 12:58:21;;;;;;;;;;;;;;;;;;5057408;28;19952;-78
2022/06/16 13:00:49;;;;;;;;;;;;;;;;;;5031584;28;19967;-79
2022/06/16 13:03:19;;;;;;;;;;;;;;;;;;5020901;28;19925;-78
2022/06/16 13:05:46;;;;;;;;;;;;;;;;;;5019701;28;19925;-79
2022/06/16 13:08:14;;;;;;;;;;;;;;;;;;5019288;28;19952;-78
2022/06/16 13:10:41;;;;;;;;;;;;;;;;;;5023771;28;19965;-78
2022/06/16 13:13:09;;;;;;;;;;;;;;;;;;5034696;28;19980;-78
2022/06/16 13:15:38;;;;;;;;;;;;;;;;;;5034040;28;19961;-78
2022/06/16 13:18:07;;;;;;;;;;;;;;;;;;5029091;28;19932;-78
2022/06/16 13:20:34;;;;;;;;;;;;;;;;;;5023213;28;20021;-79
2022/06/16 13:23:04;;;;;;;;;;;;;;;;;;5020881;28;19968;-79
2022/06/16 13:25:38;;;;;;;;;;;;;;;;;;5018361;28;19969;-78
2022/06/16 13:28:06;;;;;;;;;;;;;;;;;;5018719;28;19972;-78
2022/06/16 13:30:39;;;;;;;;;;;;;;;;;;5017759;28;19932;-78
2022/06/16 13:33:20;;;;;;;;;;;;;;;;;;5017880;28;19932;-78
2022/06/16 13:35:48;;;;;;;;;;;;;;;;;;5014435;28;19926;-78
2022/06/16 13:38:23;;;;;;;;;;;;;;;;;;5023539;28;19973;-77
2022/06/16 13:41:10;;;;;;;;;;;;;;;;;;5023214;28;20025;-77
2022/06/16 13:43:38;;;;;;;;;;;;;;;;;;5024726;28;19925;-78
2022/06/16 13:46:04;;;;;;;;;;;;;;;;;;5022973;28;19997;-77
2022/06/16 13:48:34;;;;;;;;;;;;;;;;;;5019288;28;19961;-77
2022/06/16 13:51:02;;;;;;;;;;;;;;;;;;5015867;28;19988;-78
2022/06/16 13:53:32;;;;;;;;;;;;;;;;;;5016957;28;20036;-78
2022/06/16 13:55:59;;;;;;;;;;;;;;;;;;5018295;28;19925;-78
2022/06/16 13:58:27;;;;;;;;;;;;;;;;;;5021509;28;19925;-79
2022/06/16 14:01:06;;;;;;;;;;;;;;;;;;5037668;28;20284;-79
2022/06/16 14:03:33;;;;;;;;;;;;;;;;;;5038634;28;20626;-79
2022/06/16 14:06:04;;;;;;;;;;;;;;;;;;5039417;28;19992;-78
2022/06/16 14:08:30;;;;;;;;;;;;;;;;;;5038612;28;20407;-78
2022/06/16 14:11:16;;;;;;;;;;;;;;;;;;5038618;28;19979;-78
2022/06/16 14:13:45;;;;;;;;;;;;;;;;;;5038376;28;20008;-77
2022/06/16 14:16:22;;;;;;;;;;;;;;;;;;5047303;28;19932;-78
2022/06/16 14:19:05;;;;;;;;;;;;;;;;;;5048771;28;19956;-78
2022/06/16 14:21:33;;;;;;;;;;;;;;;;;;5035590;28;19929;-77
2022/06/16 14:24:03;;;;;;;;;;;;;;;;;;5034389;28;20004;-77
2022/06/16 14:26:31;;;;;;;;;;;;;;;;;;5034226;28;19925;-77
2022/06/16 14:28:59;;;;;;;;;;;;;;;;;;5035000;28;20016;-78
2022/06/16 14:31:28;;;;;;;;;;;;;;;;;;5034789;28;19972;-77
2022/06/16 14:33:56;;;;;;;;;;;;;;;;;;5035167;28;19929;-78
2022/06/16 14:36:23;;;;;;;;;;;;;;;;;;5034595;28;19960;-78
2022/06/16 14:38:52;;;;;;;;;;;;;;;;;;5035345;28;19983;-77
2022/06/16 14:41:21;;;;;;;;;;;;;;;;;;5035104;28;20012;-78
2022/06/16 14:43:49;;;;;;;;;;;;;;;;;;5039474;28;20016;-78
2022/06/16 14:46:19;;;;;;;;;;;;;;;;;;5040601;28;19932;-78
2022/06/16 14:48:48;;;;;;;;;;;;;;;;;;5042665;28;19985;-78
2022/06/16 14:51:16;;;;;;;;;;;;;;;;;;5042633;28;20028;-78
2022/06/16 14:53:45;;;;;;;;;;;;;;;;;;5040139;28;19979;-78
2022/06/16 14:56:13;;;;;;;;;;;;;;;;;;5037368;28;20024;-78
2022/06/16 14:58:44;;;;;;;;;;;;;;;;;;5031002;28;19969;-78
2022/06/16 15:01:11;;;;;;;;;;;;;;;;;;5014198;28;19969;-78
2022/06/16 15:03:37;;;;;;;;;;;;;;;;;;5015406;28;20004;-78
2022/06/16 15:06:06;;;;;;;;;;;;;;;;;;5014835;28;19925;-78
2022/06/16 15:08:33;;;;;;;;;;;;;;;;;;5014190;28;19984;-79
2022/06/16 15:11:01;;;;;;;;;;;;;;;;;;5014436;28;19926;-78
2022/06/16 15:13:29;;;;;;;;;;;;;;;;;;5014730;28;19925;-78
2022/06/16 15:15:56;;;;;;;;;;;;;;;;;;5015429;28;19929;-79
2022/06/16 15:18:21;;;;;;;;;;;;;;;;;;5015765;28;20003;-78
2022/06/16 15:20:49;;;;;;;;;;;;;;;;;;5015260;28;19960;-78
2022/06/16 15:23:18;;;;;;;;;;;;;;;;;;5015342;28;19926;-78
2022/06/16 15:25:49;;;;;;;;;;;;;;;;;;5015728;28;19925;-78
2022/06/16 15:28:17;;;;;;;;;;;;;;;;;;5014203;28;20024;-77
2022/06/16 15:30:44;;;;;;;;;;;;;;;;;;5016230;28;20172;-77
2022/06/16 15:36:13;;;;;;;;;;;;;;;;;;5020081;28;19993;-77
2022/06/16 15:38:45;;;;;;;;;;;;;;;;;;5018731;28;19925;-78
2022/06/16 15:41:29;;;;;;;;;;;;;;;;;;5017981;28;19930;-78
2022/06/16 15:43:59;;;;;;;;;;;;;;;;;;5018965;28;20399;-78
2022/06/16 15:46:26;;;;;;;;;;;;;;;;;;5019633;28;20024;-78
2022/06/16 15:48:54;;;;;;;;;;;;;;;;;;5020625;28;19932;-77
2022/06/16 15:51:21;;;;;;;;;;;;;;;;;;5031635;28;19980;-78
2022/06/16 15:53:49;;;;;;;;;;;;;;;;;;5024273;28;19993;-78
2022/06/16 15:56:21;;;;;;;;;;;;;;;;;;5020099;28;20455;-78
2022/06/16 15:58:56;;;;;;;;;;;;;;;;;;5025282;28;19925;-77
2022/06/16 16:01:22;;;;;;;;;;;;;;;;;;5038720;28;19980;-79
2022/06/16 16:03:49;;;;;;;;;;;;;;;;;;5039937;28;19931;-78
2022/06/16 16:06:15;;;;;;;;;;;;;;;;;;5040905;28;19972;-78
2022/06/16 16:08:44;;;;;;;;;;;;;;;;;;5041915;28;20015;-79
2022/06/16 16:11:19;;;;;;;;;;;;;;;;;;5038839;28;19931;-76
2022/06/16 16:13:54;;;;;;;;;;;;;;;;;;5020008;28;19935;-77
2022/06/16 16:16:20;;;;;;;;;;;;;;;;;;5019135;28;19933;-79
2022/06/16 16:19:02;;;;;;;;;;;;;;;;;;5021444;28;19957;-78
2022/06/16 16:21:34;;;;;;;;;;;;;;;;;;5022169;28;20427;-78
2022/06/16 16:26:40;;;;;;;;;;;;;;;;;;5029878;28;20295;-76
2022/06/16 16:29:08;;;;;;;;;;;;;;;;;;5034021;28;19981;-77
2022/06/16 16:31:39;;;;;;;;;;;;;;;;;;5034306;28;19932;-77
2022/06/16 16:34:09;;;;;;;;;;;;;;;;;;5034561;28;19986;-78
2022/06/16 16:36:37;;;;;;;;;;;;;;;;;;5034648;28;20011;-77
2022/06/16 16:39:19;;;;;;;;;;;;;;;;;;5034593;28;19980;-77
2022/06/16 16:44:35;;;;;;;;;;;;;;;;;;5034224;28;20007;-77
2022/06/16 16:47:03;;;;;;;;;;;;;;;;;;5036630;28;20529;-78
2022/06/16 16:49:49;;;;;;;;;;;;;;;;;;5035358;28;20012;-78
2022/06/16 16:52:15;;;;;;;;;;;;;;;;;;5035725;28;19968;-78
2022/06/16 16:54:42;;;;;;;;;;;;;;;;;;5036177;28;20364;-77
2022/06/16 16:57:11;;;;;;;;;;;;;;;;;;5036974;28;20368;-79
2022/06/16 16:59:39;;;;;;;;;;;;;;;;;;5038298;28;20008;-77
2022/06/16 17:02:05;;;;;;;;;;;;;;;;;;5038643;28;19928;-78
2022/06/16 17:04:37;;;;;;;;;;;;;;;;;;5040212;28;19971;-77
2022/06/16 17:07:04;;;;;;;;;;;;;;;;;;5041522;28;19929;-76
2022/06/16 17:09:31;;;;;;;;;;;;;;;;;;5038275;28;20372;-79
2022/06/16 17:11:58;;;;;;;;;;;;;;;;;;5038644;28;20535;-76
2022/06/16 17:14:27;;;;;;;;;;;;;;;;;;5044076;28;19969;-81
2022/06/16 17:16:54;;;;;;;;;;;;;;;;;;5040577;28;19929;-79
2022/06/16 17:19:21;;;;;;;;;;;;;;;;;;5040183;28;19960;-80
2022/06/16 17:21:48;;;;;;;;;;;;;;;;;;5041670;28;20001;-80
2022/06/16 17:24:15;;;;;;;;;;;;;;;;;;5040398;28;20411;-79
2022/06/16 17:26:42;;;;;;;;;;;;;;;;;;5039904;28;19925;-81